createdAt,value
2018-09-16T00:00:46.599Z,59.3
2018-09-16T00:01:37.193Z,59.3
2018-09-16T00:02:27.051Z,59.3
2018-09-16T00:03:17.088Z,59.2
2018-09-16T00:04:06.568Z,59.2
2018-09-16T00:04:56.638Z,59.2
2018-09-16T00:05:46.687Z,59.2
2018-09-16T00:06:36.495Z,59.1
2018-09-16T00:07:26.848Z,59.1
2018-09-16T00:08:16.903Z,59.1
2018-09-16T00:09:07.238Z,59.1
2018-09-16T00:09:57.591Z,59.1
2018-09-16T00:10:47.343Z,59.1
2018-09-16T00:11:36.585Z,59.1
2018-09-16T00:12:27.494Z,59.1
2018-09-16T00:13:17.549Z,59
2018-09-16T00:14:07.633Z,59.1
2018-09-16T00:14:57.653Z,59
2018-09-16T00:15:47.155Z,59
2018-09-16T00:16:37.210Z,59
2018-09-16T00:17:27.880Z,59
2018-09-16T00:18:18.186Z,58.9
2018-09-16T00:19:07.115Z,58.9
2018-09-16T00:19:58.332Z,58.9
2018-09-16T00:20:48.179Z,58.9
2018-09-16T00:21:37.915Z,58.9
2018-09-16T00:22:28.225Z,58.9
2018-09-16T00:23:17.902Z,58.9
2018-09-16T00:24:07.495Z,58.9
2018-09-16T00:24:58.693Z,58.8
2018-09-16T00:25:49.024Z,58.8
2018-09-16T00:26:38.291Z,58.8
2018-09-16T00:27:28.056Z,58.8
2018-09-16T00:28:19.014Z,58.8
2018-09-16T00:29:09.062Z,58.8
2018-09-16T00:29:58.805Z,58.8
2018-09-16T00:30:48.857Z,58.8
2018-09-16T00:31:38.919Z,58.7
2018-09-16T00:32:29.001Z,58.7
2018-09-16T00:33:18.494Z,58.7
2018-09-16T00:34:08.851Z,58.7
2018-09-16T00:34:59.524Z,58.7
2018-09-16T00:35:49.841Z,58.6
2018-09-16T00:36:39.589Z,58.6
2018-09-16T00:56:09.312Z,58.3
2018-09-16T00:56:58.906Z,58.3
2018-09-16T00:57:48.680Z,58.3
2018-09-16T00:58:39.263Z,58.3
2018-09-16T00:59:29.370Z,58.3
2018-09-16T01:00:19.715Z,58.3
2018-09-16T01:01:09.447Z,58.3
2018-09-16T01:01:59.242Z,58.3
2018-09-16T01:02:49.307Z,58.2
2018-09-16T01:03:38.495Z,58.2
2018-09-16T01:04:29.505Z,58.2
2018-09-16T01:05:19.783Z,58.2
2018-09-16T01:06:09.869Z,58.1
2018-09-16T01:06:59.587Z,58.1
2018-09-16T01:07:49.970Z,58.1
2018-09-16T01:08:39.758Z,58.1
2018-09-16T01:09:29.794Z,58.1
2018-09-16T01:10:19.873Z,58.1
2018-09-16T01:11:10.191Z,58.1
2018-09-16T01:11:59.697Z,58.1
2018-09-16T01:12:49.268Z,58.1
2018-09-16T01:13:39.861Z,58
2018-09-16T01:14:30.169Z,58
2018-09-16T01:15:19.983Z,58
2018-09-16T01:16:10.293Z,58
2018-09-16T01:17:00.650Z,57.9
2018-09-16T01:17:50.496Z,57.9
2018-09-16T01:18:40.848Z,57.9
2018-09-16T01:19:30.566Z,57.9
2018-09-16T01:20:20.333Z,57.9
2018-09-16T01:21:11.042Z,57.9
2018-09-16T01:22:00.532Z,57.9
2018-09-16T01:22:50.243Z,57.9
2018-09-16T01:23:40.853Z,57.8
2018-09-16T01:24:30.965Z,57.8
2018-09-16T01:25:21.059Z,57.8
2018-09-16T01:26:11.311Z,57.8
2018-09-16T01:27:01.458Z,57.8
2018-09-16T01:27:51.508Z,57.8
2018-09-16T01:32:01.615Z,57.7
2018-09-16T01:32:51.600Z,57.7
2018-09-16T01:33:41.368Z,57.7
2018-09-16T01:34:31.200Z,57.7
2018-09-16T01:35:21.780Z,57.6
2018-09-16T01:36:11.521Z,57.6
2018-09-16T01:37:02.202Z,57.6
2018-09-16T01:37:52.256Z,57.6
2018-09-16T01:38:42.345Z,57.6
2018-09-16T01:39:31.795Z,57.6
2018-09-16T01:40:21.847Z,57.6
2018-09-16T01:41:12.487Z,57.6
2018-09-16T01:42:02.852Z,57.6
2018-09-16T01:42:52.590Z,57.6
2018-09-16T01:43:42.138Z,57.5
2018-09-16T01:44:32.472Z,57.6
2018-09-16T01:45:22.818Z,57.5
2018-09-16T01:46:12.287Z,57.5
2018-09-16T01:47:03.367Z,57.5
2018-09-16T01:47:52.694Z,57.4
2018-09-16T01:48:42.547Z,57.4
2018-09-16T01:49:32.614Z,57.4
2018-09-16T01:50:22.644Z,57.4
2018-09-16T01:51:13.238Z,57.4
2018-09-16T01:52:03.036Z,57.4
2018-09-16T01:52:53.404Z,57.4
2018-09-16T01:53:42.591Z,57.4
2018-09-16T01:54:32.650Z,57.4
2018-09-16T01:55:23.593Z,57.3
2018-09-16T01:56:13.321Z,57.3
2018-09-16T01:57:03.646Z,57.3
2018-09-16T01:57:52.894Z,57.3
2018-09-16T01:58:43.886Z,57.3
2018-09-16T01:59:33.903Z,57.3
2018-09-16T02:00:23.951Z,57.3
2018-09-16T02:01:13.419Z,57.3
2018-09-16T02:02:04.080Z,57.3
2018-09-16T02:02:54.197Z,57.3
2018-09-16T02:03:44.183Z,57.2
2018-09-16T02:04:34.266Z,57.2
2018-09-16T02:05:23.464Z,57.2
2018-09-16T02:06:13.820Z,57.1
2018-09-16T02:07:03.608Z,57.1
2018-09-16T02:07:53.990Z,57.1
2018-09-16T02:08:44.295Z,57.1
2018-09-16T02:09:34.093Z,57.1
2018-09-16T02:10:23.833Z,57.1
2018-09-16T02:11:14.755Z,57.1
2018-09-16T02:12:04.548Z,57.1
2018-09-16T02:12:54.855Z,57.1
2018-09-16T02:13:44.393Z,57
2018-09-16T02:14:33.887Z,57.1
2018-09-16T02:15:24.205Z,57.1
2018-09-16T02:16:14.870Z,57
2018-09-16T02:17:05.528Z,57
2018-09-16T02:17:54.470Z,57
2018-09-16T02:18:43.905Z,56.9
2018-09-16T02:19:35.130Z,56.9
2018-09-16T02:20:24.353Z,56.9
2018-09-16T02:21:15.257Z,56.9
2018-09-16T02:22:05.660Z,56.9
2018-09-16T02:22:55.412Z,56.9
2018-09-16T02:23:45.755Z,56.9
2018-09-16T02:24:35.777Z,56.9
2018-09-16T02:25:25.277Z,56.9
2018-09-16T02:26:15.321Z,56.8
2018-09-16T02:27:05.507Z,56.8
2018-09-16T02:27:55.266Z,56.8
2018-09-16T02:28:45.540Z,56.8
2018-09-16T02:29:35.558Z,56.8
2018-09-16T02:30:25.650Z,56.8
2018-09-16T02:31:16.282Z,56.8
2018-09-16T02:32:06.609Z,56.8
2018-09-16T02:32:56.142Z,56.8
2018-09-16T02:33:46.212Z,56.8
2018-09-16T02:34:36.543Z,56.8
2018-09-16T02:35:26.609Z,56.7
2018-09-16T02:36:16.376Z,56.7
2018-09-16T02:37:06.458Z,56.7
2018-09-16T02:37:56.844Z,56.7
2018-09-16T02:38:46.872Z,56.6
2018-09-16T02:39:36.884Z,56.6
2018-09-16T02:40:26.736Z,56.6
2018-09-16T02:41:16.484Z,56.6
2018-09-16T02:42:06.841Z,56.6
2018-09-16T02:42:56.844Z,56.6
2018-09-16T02:43:47.260Z,56.6
2018-09-16T02:44:36.449Z,56.6
2018-09-16T02:45:26.538Z,56.6
2018-09-16T02:46:16.891Z,56.6
2018-09-16T02:47:06.987Z,56.5
2018-09-16T02:47:56.426Z,56.5
2018-09-16T02:48:47.641Z,56.5
2018-09-16T02:49:37.395Z,56.5
2018-09-16T02:50:27.480Z,56.4
2018-09-16T02:51:17.243Z,56.4
2018-09-16T02:52:07.015Z,56.4
2018-09-16T02:52:57.943Z,56.4
2018-09-16T02:53:47.433Z,56.4
2018-09-16T02:54:38.051Z,56.4
2018-09-16T02:55:27.831Z,56.4
2018-09-16T02:56:17.607Z,56.4
2018-09-16T02:57:08.267Z,56.4
2018-09-16T02:57:57.697Z,56.4
2018-09-16T02:58:48.322Z,56.4
2018-09-16T02:59:38.122Z,56.3
2018-09-16T03:00:28.431Z,56.3
2018-09-16T03:01:18.573Z,56.3
2018-09-16T03:02:08.365Z,56.3
2018-09-16T03:02:59.060Z,56.3
2018-09-16T03:03:48.802Z,56.3
2018-09-16T03:04:38.542Z,56.3
2018-09-16T03:05:28.869Z,56.3
2018-09-16T03:06:18.680Z,56.3
2018-09-16T03:07:09.078Z,56.2
2018-09-16T03:07:58.572Z,56.2
2018-09-16T03:08:48.559Z,56.2
2018-09-16T03:09:38.893Z,56.2
2018-09-16T03:10:29.295Z,56.1
2018-09-16T03:11:19.039Z,56.1
2018-09-16T03:12:08.551Z,56.1
2018-09-16T03:12:59.443Z,56.1
2018-09-16T03:13:49.057Z,56.1
2018-09-16T03:14:39.378Z,56.1
2018-09-16T03:15:29.087Z,56.1
2018-09-16T03:16:19.156Z,56.1
2018-09-16T03:17:09.478Z,56.1
2018-09-16T03:17:59.201Z,56.1
2018-09-16T03:18:49.471Z,56
2018-09-16T03:19:39.369Z,56
2018-09-16T03:20:29.995Z,56
2018-09-16T03:21:19.799Z,55.9
2018-09-16T03:22:09.861Z,55.9
2018-09-16T03:23:00.006Z,55.9
2018-09-16T03:23:49.999Z,55.9
2018-09-16T03:24:40.318Z,55.9
2018-09-16T03:25:31.289Z,55.9
2018-09-16T03:26:20.221Z,55.9
2018-09-16T03:27:09.951Z,55.9
2018-09-16T03:28:00.291Z,55.8
2018-09-16T03:28:50.068Z,55.8
2018-09-16T03:29:40.491Z,55.8
2018-09-16T03:30:31.153Z,55.8
2018-09-16T03:31:20.055Z,55.8
2018-09-16T03:32:10.932Z,55.8
2018-09-16T03:33:00.983Z,55.8
2018-09-16T03:33:50.726Z,55.8
2018-09-16T03:34:40.803Z,55.8
2018-09-16T03:35:31.373Z,55.8
2018-09-16T03:36:20.098Z,55.7
2018-09-16T03:37:11.022Z,55.7
2018-09-16T03:38:01.332Z,55.7
2018-09-16T03:38:50.817Z,55.7
2018-09-16T03:39:41.207Z,55.6
2018-09-16T03:40:31.778Z,55.6
2018-09-16T03:41:21.814Z,55.6
2018-09-16T03:42:11.402Z,55.6
2018-09-16T03:43:01.178Z,55.6
2018-09-16T03:43:51.845Z,55.6
2018-09-16T03:44:41.870Z,55.6
2018-09-16T03:45:31.963Z,55.6
2018-09-16T03:46:21.783Z,55.6
2018-09-16T03:47:11.505Z,55.6
2018-09-16T03:48:01.247Z,55.5
2018-09-16T03:48:52.201Z,55.5
2018-09-16T03:49:42.016Z,55.5
2018-09-16T03:50:32.585Z,55.5
2018-09-16T03:51:22.372Z,55.5
2018-09-16T03:52:12.179Z,55.5
2018-09-16T03:53:02.487Z,55.4
2018-09-16T03:53:51.965Z,55.4
2018-09-16T03:54:42.365Z,55.4
2018-09-16T03:55:33.017Z,55.4
2018-09-16T03:56:22.579Z,55.4
2018-09-16T03:57:12.217Z,55.4
2018-09-16T03:58:02.309Z,55.4
2018-09-16T03:58:52.914Z,55.4
2018-09-16T03:59:42.106Z,55.3
2018-09-16T04:00:32.786Z,55.3
2018-09-16T04:01:22.882Z,55.3
2018-09-16T04:02:13.206Z,55.3
2018-09-16T04:03:03.273Z,55.3
2018-09-16T04:03:53.334Z,55.3
2018-09-16T04:04:43.090Z,55.3
2018-09-16T04:05:33.693Z,55.2
2018-09-16T04:06:23.204Z,55.2
2018-09-16T04:07:13.010Z,55.2
2018-09-16T04:08:03.632Z,55.2
2018-09-16T04:08:53.117Z,55.2
2018-09-16T04:09:43.495Z,55.1
2018-09-16T04:10:33.873Z,55.1
2018-09-16T04:11:23.608Z,55.1
2018-09-16T04:12:13.944Z,55.1
2018-09-16T04:13:03.443Z,55.1
2018-09-16T04:13:54.370Z,55.1
2018-09-16T04:14:44.149Z,55.1
2018-09-16T04:15:33.901Z,55.1
2018-09-16T04:16:23.976Z,55.1
2018-09-16T04:17:14.093Z,55.1
2018-09-16T04:18:03.813Z,55.1
2018-09-16T04:18:54.181Z,55
2018-09-16T04:19:44.221Z,55
2018-09-16T04:20:33.998Z,55
2018-09-16T04:21:24.120Z,54.9
2018-09-16T04:22:14.435Z,54.9
2018-09-16T04:23:04.203Z,54.9
2018-09-16T04:23:54.548Z,54.9
2018-09-16T04:24:44.896Z,54.8
2018-09-16T04:25:34.650Z,54.8
2018-09-16T04:26:24.945Z,54.8
2018-09-16T04:27:14.930Z,54.8
2018-09-16T04:28:05.224Z,54.8
2018-09-16T04:28:55.203Z,54.8
2018-09-16T04:29:45.064Z,54.8
2018-09-16T04:30:35.155Z,54.8
2018-09-16T04:31:25.200Z,54.8
2018-09-16T04:32:15.248Z,54.8
2018-09-16T04:33:05.253Z,54.7
2018-09-16T04:33:55.037Z,54.7
2018-09-16T04:34:45.387Z,54.7
2018-09-16T04:35:35.440Z,54.7
2018-09-16T04:36:25.304Z,54.7
2018-09-16T04:37:15.592Z,54.7
2018-09-16T04:38:05.900Z,54.7
2018-09-16T04:38:55.502Z,54.6
2018-09-16T04:39:45.749Z,54.6
2018-09-16T04:40:35.836Z,54.6
2018-09-16T04:41:25.858Z,54.6
2018-09-16T04:42:15.342Z,54.6
2018-09-16T04:43:05.965Z,54.6
2018-09-16T04:43:56.337Z,54.6
2018-09-16T04:44:45.977Z,54.6
2018-09-16T04:45:35.922Z,54.6
2018-09-16T04:46:25.943Z,54.5
2018-09-16T04:47:16.367Z,54.5
2018-09-16T04:48:06.373Z,54.5
2018-09-16T04:48:56.726Z,54.5
2018-09-16T04:49:46.793Z,54.5
2018-09-16T04:50:36.859Z,54.4
2018-09-16T04:51:26.900Z,54.5
2018-09-16T04:52:16.441Z,54.4
2018-09-16T04:53:06.848Z,54.4
2018-09-16T04:53:56.806Z,54.4
2018-09-16T04:54:47.143Z,54.4
2018-09-16T04:55:37.240Z,54.4
2018-09-16T04:56:27.000Z,54.4
2018-09-16T04:57:16.808Z,54.4
2018-09-16T04:58:06.885Z,54.4
2018-09-16T04:58:56.623Z,54.4
2018-09-16T04:59:47.343Z,54.3
2018-09-16T05:00:37.358Z,54.3
2018-09-16T05:01:27.488Z,54.3
2018-09-16T05:02:17.442Z,54.3
2018-09-16T05:03:07.253Z,54.3
2018-09-16T05:03:57.847Z,54.3
2018-09-16T05:04:47.638Z,54.3
2018-09-16T05:05:37.988Z,54.3
2018-09-16T05:06:27.753Z,54.3
2018-09-16T05:07:18.102Z,54.3
2018-09-16T05:25:01.189Z,53.9
2018-09-16T05:25:51.675Z,53.9
2018-09-16T05:26:41.321Z,53.9
2018-09-16T05:27:31.650Z,53.8
2018-09-16T05:28:21.699Z,53.8
2018-09-16T05:29:11.496Z,53.8
2018-09-16T05:30:01.898Z,53.8
2018-09-16T05:30:51.350Z,53.8
2018-09-16T05:31:41.169Z,53.8
2018-09-16T05:32:32.271Z,53.8
2018-09-16T05:33:22.066Z,53.8
2018-09-16T05:34:11.859Z,53.8
2018-09-16T05:35:02.225Z,53.8
2018-09-16T05:35:52.309Z,53.7
2018-09-16T05:36:41.481Z,53.7
2018-09-16T05:37:31.528Z,53.7
2018-09-16T05:38:21.581Z,53.7
2018-09-16T05:39:12.220Z,53.7
2018-09-16T05:40:01.993Z,53.6
2018-09-16T05:40:52.598Z,53.6
2018-09-16T05:41:42.651Z,53.6
2018-09-16T05:42:32.203Z,53.6
2018-09-16T05:43:22.405Z,53.6
2018-09-16T05:44:11.761Z,53.6
2018-09-16T05:45:02.940Z,53.6
2018-09-16T05:45:52.455Z,53.6
2018-09-16T05:46:42.745Z,53.6
2018-09-16T05:47:32.555Z,53.6
2018-09-16T05:48:23.205Z,53.6
2018-09-16T05:49:12.691Z,53.6
2018-09-16T05:50:03.075Z,53.6
2018-09-16T05:50:53.677Z,53.6
2018-09-16T05:51:43.517Z,53.5
2018-09-16T05:52:33.266Z,53.5
2018-09-16T05:53:25.047Z,53.5
2018-09-16T05:54:13.350Z,53.4
2018-09-16T05:55:03.120Z,53.4
2018-09-16T05:55:53.722Z,53.4
2018-09-16T05:56:43.527Z,53.4
2018-09-16T05:57:33.647Z,53.4
2018-09-16T05:58:23.669Z,53.4
2018-09-16T05:59:13.999Z,53.4
2018-09-16T06:00:04.094Z,53.4
2018-09-16T06:00:54.411Z,53.4
2018-09-16T06:01:44.006Z,53.4
2018-09-16T06:02:33.974Z,53.4
2018-09-16T06:03:23.768Z,53.3
2018-09-16T06:04:14.659Z,53.4
2018-09-16T06:05:04.540Z,53.3
2018-09-16T06:05:54.622Z,53.3
2018-09-16T06:06:45.366Z,53.3
2018-09-16T06:07:34.489Z,53.3
2018-09-16T06:08:24.238Z,53.3
2018-09-16T06:09:14.855Z,53.3
2018-09-16T06:10:04.876Z,53.3
2018-09-16T06:10:55.358Z,53.3
2018-09-16T06:11:44.657Z,53.3
2018-09-16T06:12:34.469Z,53.2
2018-09-16T06:13:24.523Z,53.2
2018-09-16T06:14:15.002Z,53.2
2018-09-16T06:15:05.017Z,53.2
2018-09-16T06:15:55.333Z,53.2
2018-09-16T06:16:45.115Z,53.1
2018-09-16T06:17:35.383Z,53.1
2018-09-16T06:18:24.921Z,53.1
2018-09-16T06:19:15.623Z,53.1
2018-09-16T06:20:05.357Z,53.1
2018-09-16T06:20:54.798Z,53.1
2018-09-16T06:21:45.711Z,53.1
2018-09-16T06:22:36.123Z,53
2018-09-16T06:23:25.659Z,52.9
2018-09-16T06:24:15.353Z,52.9
2018-09-16T06:25:05.460Z,52.8
2018-09-16T06:25:56.025Z,52.8
2018-09-16T06:26:45.823Z,52.8
2018-09-16T06:27:35.563Z,52.8
2018-09-16T06:28:25.947Z,52.8
2018-09-16T06:29:15.720Z,52.8
2018-09-16T06:30:05.798Z,52.8
2018-09-16T06:30:56.430Z,52.7
2018-09-16T06:31:46.450Z,52.7
2018-09-16T06:32:36.247Z,52.7
2018-09-16T06:33:26.728Z,52.6
2018-09-16T06:34:16.677Z,52.6
2018-09-16T06:35:06.452Z,52.6
2018-09-16T06:35:56.807Z,52.6
2018-09-16T06:36:46.566Z,52.6
2018-09-16T06:37:36.639Z,52.6
2018-09-16T06:38:27.019Z,52.6
2018-09-16T06:39:17.117Z,52.6
2018-09-16T06:40:06.817Z,52.6
2018-09-16T06:40:57.182Z,52.6
2018-09-16T06:41:47.260Z,52.6
2018-09-16T06:42:37.019Z,52.5
2018-09-16T06:43:26.764Z,52.5
2018-09-16T06:44:17.139Z,52.5
2018-09-16T06:45:07.489Z,52.5
2018-09-16T06:45:56.984Z,52.5
2018-09-16T06:46:47.319Z,52.5
2018-09-16T06:47:37.396Z,52.4
2018-09-16T06:48:27.741Z,52.4
2018-09-16T06:49:17.528Z,52.4
2018-09-16T06:50:07.878Z,52.4
2018-09-16T06:50:58.780Z,52.4
2018-09-16T06:51:48.011Z,52.4
2018-09-16T06:57:38.194Z,52.3
2018-09-16T06:58:28.225Z,52.3
2018-09-16T06:59:18.271Z,52.3
2018-09-16T07:00:08.379Z,52.3
2018-09-16T07:00:59.554Z,52.3
2018-09-16T07:01:48.250Z,52.3
2018-09-16T07:02:38.591Z,52.3
2018-09-16T07:03:28.910Z,52.3
2018-09-16T07:04:18.909Z,52.3
2018-09-16T07:05:08.746Z,52.3
2018-09-16T07:05:58.015Z,52.3
2018-09-16T07:06:48.946Z,52.3
2018-09-16T07:07:39.065Z,52.2
2018-09-16T07:08:30.242Z,52.2
2018-09-16T07:09:19.062Z,52.2
2018-09-16T07:10:09.402Z,52.2
2018-09-16T07:10:59.464Z,52.1
2018-09-16T07:11:49.285Z,52.1
2018-09-16T07:12:39.363Z,52.1
2018-09-16T07:13:29.612Z,52.1
2018-09-16T07:14:20.581Z,52.1
2018-09-16T07:15:09.627Z,52.1
2018-09-16T07:15:59.265Z,52.1
2018-09-16T07:16:49.902Z,52.1
2018-09-16T07:17:40.000Z,52.1
2018-09-16T07:18:30.027Z,52.1
2018-09-16T07:19:20.089Z,52.1
2018-09-16T07:20:10.501Z,52.1
2018-09-16T07:20:59.328Z,52.1
2018-09-16T07:21:50.278Z,52.1
2018-09-16T07:22:39.784Z,52
2018-09-16T07:23:30.519Z,52
2018-09-16T07:24:19.882Z,52
2018-09-16T07:25:09.682Z,52
2018-09-16T07:26:00.020Z,52
2018-09-16T07:31:00.667Z,51.9
2018-09-16T07:32:40.646Z,51.9
2018-09-16T07:33:30.635Z,51.9
2018-09-16T07:34:20.946Z,51.9
2018-09-16T07:35:10.401Z,51.9
2018-09-16T07:36:00.779Z,51.8
2018-09-16T07:36:50.546Z,51.8
2018-09-16T07:37:40.911Z,51.8
2018-09-16T07:38:31.231Z,51.8
2018-09-16T07:39:21.262Z,51.8
2018-09-16T07:40:11.882Z,51.8
2018-09-16T07:41:01.404Z,51.8
2018-09-16T07:41:51.781Z,51.8
2018-09-16T07:42:41.059Z,51.8
2018-09-16T07:43:31.346Z,51.8
2018-09-16T07:44:21.490Z,51.8
2018-09-16T07:45:12.055Z,51.8
2018-09-16T07:46:02.078Z,51.7
2018-09-16T07:46:51.890Z,51.7
2018-09-16T07:47:41.673Z,51.7
2018-09-16T07:48:31.990Z,51.7
2018-09-16T07:49:22.380Z,51.7
2018-09-16T07:50:12.143Z,51.7
2018-09-16T07:51:02.195Z,51.7
2018-09-16T07:51:52.578Z,51.6
2018-09-16T07:52:41.536Z,51.6
2018-09-16T07:53:32.148Z,51.6
2018-09-16T07:54:22.010Z,51.6
2018-09-16T07:55:11.731Z,51.6
2018-09-16T07:56:02.536Z,51.6
2018-09-16T07:56:52.605Z,51.6
2018-09-16T07:57:42.970Z,51.6
2018-09-16T07:58:32.754Z,51.6
2018-09-16T07:59:22.795Z,51.6
2018-09-16T08:00:12.838Z,51.6
2018-09-16T08:01:02.773Z,51.5
2018-09-16T08:01:52.710Z,51.5
2018-09-16T08:02:43.095Z,51.5
2018-09-16T08:03:33.117Z,51.5
2018-09-16T08:04:22.842Z,51.5
2018-09-16T08:05:13.243Z,51.5
2018-09-16T08:06:03.838Z,51.4
2018-09-16T08:06:53.375Z,51.4
2018-09-16T08:07:43.177Z,51.4
2018-09-16T08:08:33.527Z,51.4
2018-09-16T08:09:23.587Z,51.4
2018-09-16T08:10:13.623Z,51.4
2018-09-16T08:11:03.494Z,51.4
2018-09-16T08:11:53.567Z,51.4
2018-09-16T08:12:43.889Z,51.4
2018-09-16T08:13:33.874Z,51.4
2018-09-16T08:14:23.446Z,51.4
2018-09-16T08:15:14.128Z,51.3
2018-09-16T08:16:04.433Z,51.3
2018-09-16T08:16:54.424Z,51.3
2018-09-16T08:17:44.528Z,51.3
2018-09-16T08:18:34.090Z,51.3
2018-09-16T08:19:24.370Z,51.3
2018-09-16T08:20:14.386Z,51.3
2018-09-16T08:21:05.470Z,51.3
2018-09-16T08:21:54.206Z,51.3
2018-09-16T08:22:44.710Z,51.3
2018-09-16T08:23:35.864Z,51.3
2018-09-16T08:24:24.719Z,51.3
2018-09-16T08:25:14.492Z,51.2
2018-09-16T08:26:04.843Z,51.2
2018-09-16T08:26:55.312Z,51.2
2018-09-16T08:27:45.179Z,51.2
2018-09-16T08:28:36.868Z,51.2
2018-09-16T08:29:25.196Z,51.2
2018-09-16T08:30:15.509Z,51.1
2018-09-16T08:31:05.500Z,51.1
2018-09-16T08:31:55.201Z,51.1
2018-09-16T08:32:45.626Z,51.1
2018-09-16T08:33:35.674Z,51.1
2018-09-16T08:34:25.456Z,51.1
2018-09-16T08:35:16.104Z,51.1
2018-09-16T08:36:05.583Z,51.1
2018-09-16T08:36:56.175Z,51.1
2018-09-16T08:37:45.991Z,51.1
2018-09-16T08:38:35.753Z,51.1
2018-09-16T08:39:25.835Z,51.1
2018-09-16T08:40:16.250Z,51
2018-09-16T08:41:05.967Z,51
2018-09-16T08:41:56.270Z,51
2018-09-16T08:42:46.105Z,51
2018-09-16T08:43:36.125Z,51
2018-09-16T08:44:25.943Z,51
2018-09-16T08:45:16.557Z,50.9
2018-09-16T08:46:06.352Z,50.9
2018-09-16T08:46:56.200Z,50.9
2018-09-16T08:47:45.915Z,50.9
2018-09-16T08:48:36.537Z,50.9
2018-09-16T08:49:26.296Z,50.9
2018-09-16T08:50:16.379Z,50.9
2018-09-16T08:51:06.417Z,50.9
2018-09-16T08:51:56.834Z,50.9
2018-09-16T08:52:46.274Z,50.9
2018-09-16T08:53:37.182Z,50.9
2018-09-16T08:54:26.677Z,50.9
2018-09-16T08:55:17.316Z,50.9
2018-09-16T08:56:07.371Z,50.8
2018-09-16T08:56:57.144Z,50.8
2018-09-16T08:57:47.007Z,50.8
2018-09-16T08:58:37.704Z,50.8
2018-09-16T08:59:27.089Z,50.8
2018-09-16T09:00:17.114Z,50.7
2018-09-16T09:01:07.731Z,50.7
2018-09-16T09:01:57.578Z,50.6
2018-09-16T09:02:47.881Z,50.6
2018-09-16T09:03:37.959Z,50.5
2018-09-16T09:04:28.760Z,50.4
2018-09-16T09:05:18.088Z,50.4
2018-09-16T09:06:07.551Z,50.3
2018-09-16T09:06:57.951Z,50.3
2018-09-16T09:07:47.784Z,50.3
2018-09-16T09:08:37.503Z,50.3
2018-09-16T09:09:27.870Z,50.3
2018-09-16T09:10:18.451Z,50.3
2018-09-16T09:11:08.727Z,50.4
2018-09-16T09:11:59.279Z,50.4
2018-09-16T09:12:47.616Z,50.5
2018-09-16T09:13:38.702Z,50.6
2018-09-16T09:14:30.319Z,50.6
2018-09-16T09:15:17.773Z,50.7
2018-09-16T09:16:08.684Z,50.8
2018-09-16T09:16:58.947Z,50.8
2018-09-16T09:17:48.743Z,50.9
2018-09-16T09:18:38.911Z,51
2018-09-16T09:19:29.310Z,51.1
2018-09-16T09:20:18.721Z,51.2
2018-09-16T09:21:08.722Z,51.3
2018-09-16T09:21:59.592Z,51.3
2018-09-16T09:22:49.120Z,51.4
2018-09-16T09:39:30.548Z,53.1
2018-09-16T09:40:19.849Z,53.1
2018-09-16T09:41:09.647Z,53.3
2018-09-16T09:42:00.243Z,53.4
2018-09-16T09:42:50.860Z,53.5
2018-09-16T09:43:40.684Z,53.6
2018-09-16T09:44:30.763Z,53.7
2018-09-16T09:45:19.962Z,53.8
2018-09-16T09:46:10.566Z,53.8
2018-09-16T09:47:00.637Z,53.9
2018-09-16T09:47:50.402Z,54
2018-09-16T09:48:40.837Z,54.1
2018-09-16T09:49:30.824Z,54.2
2018-09-16T09:50:20.440Z,54.3
2018-09-16T09:51:11.173Z,54.4
2018-09-16T09:52:00.229Z,54.4
2018-09-16T09:52:51.085Z,54.6
2018-09-16T09:53:40.655Z,54.6
2018-09-16T09:54:31.191Z,54.8
2018-09-16T09:55:20.989Z,54.9
2018-09-16T09:56:11.340Z,54.9
2018-09-16T09:57:00.978Z,55
2018-09-16T09:57:51.905Z,55.1
2018-09-16T09:58:42.167Z,55.1
2018-09-16T09:59:32.610Z,55.2
2018-09-16T10:00:22.240Z,55.3
2018-09-16T10:01:12.009Z,55.3
2018-09-16T10:02:01.492Z,55.4
2018-09-16T10:02:51.843Z,55.4
2018-09-16T10:03:41.601Z,55.5
2018-09-16T10:04:31.476Z,55.6
2018-09-16T10:05:22.862Z,55.6
2018-09-16T10:06:12.846Z,55.8
2018-09-16T10:07:02.129Z,55.8
2018-09-16T10:07:52.479Z,55.9
2018-09-16T10:08:42.272Z,55.9
2018-09-16T10:09:32.336Z,56.1
2018-09-16T10:10:22.108Z,56.1
2018-09-16T10:11:12.465Z,56.2
2018-09-16T10:12:02.548Z,56.3
2018-09-16T10:12:52.298Z,56.4
2018-09-16T10:13:43.165Z,56.5
2018-09-16T10:14:33.938Z,56.6
2018-09-16T10:15:22.858Z,56.6
2018-09-16T10:16:12.905Z,56.7
2018-09-16T10:17:03.210Z,56.8
2018-09-16T10:17:52.965Z,56.9
2018-09-16T10:18:43.045Z,56.9
2018-09-16T10:19:33.385Z,57
2018-09-16T10:20:23.200Z,57.1
2018-09-16T10:21:12.931Z,57.2
2018-09-16T10:22:03.290Z,57.3
2018-09-16T10:22:53.335Z,57.3
2018-09-16T10:23:43.752Z,57.4
2018-09-16T10:24:33.685Z,57.5
2018-09-16T10:25:23.554Z,57.6
2018-09-16T10:26:13.954Z,57.7
2018-09-16T10:27:03.684Z,57.8
2018-09-16T10:27:53.999Z,57.9
2018-09-16T10:28:43.509Z,58
2018-09-16T10:29:33.849Z,58.1
2018-09-16T10:30:24.197Z,58.1
2018-09-16T10:31:13.993Z,58.2
2018-09-16T10:32:04.071Z,58.3
2018-09-16T10:32:54.364Z,58.4
2018-09-16T10:33:44.169Z,58.4
2018-09-16T10:34:34.241Z,58.5
2018-09-16T10:35:24.602Z,58.6
2018-09-16T10:36:14.315Z,58.7
2018-09-16T10:37:04.803Z,58.8
2018-09-16T10:37:54.493Z,58.9
2018-09-16T10:38:44.452Z,58.9
2018-09-16T10:39:34.618Z,59
2018-09-16T10:40:25.084Z,59.1
2018-09-16T10:41:15.725Z,59.2
2018-09-16T10:42:05.458Z,59.3
2018-09-16T10:42:55.665Z,59.4
2018-09-16T10:43:45.150Z,59.4
2018-09-16T10:44:34.792Z,59.6
2018-09-16T10:45:25.050Z,59.6
2018-09-16T10:46:15.378Z,59.7
2018-09-16T10:47:05.478Z,59.8
2018-09-16T10:47:55.845Z,59.9
2018-09-16T10:48:44.791Z,59.9
2018-09-16T10:49:35.126Z,60
2018-09-16T10:50:25.496Z,60.1
2018-09-16T10:51:15.590Z,60.1
2018-09-16T10:52:06.115Z,60.2
2018-09-16T10:52:55.973Z,60.3
2018-09-16T10:53:45.987Z,60.3
2018-09-16T10:54:35.765Z,60.4
2018-09-16T10:55:26.090Z,60.4
2018-09-16T10:56:15.914Z,60.4
2018-09-16T10:57:06.002Z,60.5
2018-09-16T10:57:56.057Z,60.5
2018-09-16T10:58:45.884Z,60.5
2018-09-16T10:59:36.162Z,60.5
2018-09-16T11:00:26.215Z,60.6
2018-09-16T11:01:16.565Z,60.6
2018-09-16T11:02:06.362Z,60.6
2018-09-16T11:02:56.085Z,60.6
2018-09-16T11:03:46.744Z,60.6
2018-09-16T11:04:36.654Z,60.7
2018-09-16T11:05:26.694Z,60.7
2018-09-16T11:06:16.500Z,60.7
2018-09-16T11:07:06.504Z,60.7
2018-09-16T11:07:57.424Z,60.7
2018-09-16T11:08:47.142Z,60.7
2018-09-16T11:09:36.637Z,60.8
2018-09-16T11:10:26.767Z,60.8
2018-09-16T11:11:16.831Z,60.8
2018-09-16T11:12:07.411Z,60.8
2018-09-16T11:12:57.738Z,60.8
2018-09-16T11:13:47.251Z,60.8
2018-09-16T11:14:37.077Z,60.8
2018-09-16T11:15:27.359Z,60.8
2018-09-16T11:16:17.433Z,60.8
2018-09-16T11:17:07.484Z,60.8
2018-09-16T11:17:57.815Z,60.8
2018-09-16T11:18:47.852Z,60.8
2018-09-16T11:19:37.676Z,60.7
2018-09-16T11:20:27.448Z,60.7
2018-09-16T11:21:17.526Z,60.7
2018-09-16T11:22:08.325Z,60.7
2018-09-16T11:22:58.157Z,60.8
2018-09-16T11:23:48.878Z,60.8
2018-09-16T11:24:37.780Z,60.7
2018-09-16T11:25:27.639Z,60.8
2018-09-16T11:26:17.958Z,60.8
2018-09-16T11:27:08.355Z,60.7
2018-09-16T11:27:58.328Z,60.8
2018-09-16T11:28:48.038Z,60.8
2018-09-16T11:29:38.478Z,60.7
2018-09-16T11:30:28.234Z,60.7
2018-09-16T11:31:18.577Z,60.7
2018-09-16T11:32:08.123Z,60.7
2018-09-16T11:32:58.647Z,60.7
2018-09-16T11:33:48.842Z,60.7
2018-09-16T11:34:38.797Z,60.7
2018-09-16T11:35:28.932Z,60.7
2018-09-16T11:36:19.218Z,60.7
2018-09-16T11:37:09.282Z,60.7
2018-09-16T11:37:58.509Z,60.7
2018-09-16T11:38:49.907Z,60.7
2018-09-16T11:39:39.039Z,60.7
2018-09-16T11:40:28.479Z,60.7
2018-09-16T11:41:19.340Z,60.7
2018-09-16T11:42:09.684Z,60.7
2018-09-16T11:42:59.454Z,60.6
2018-09-16T11:43:49.810Z,60.6
2018-09-16T11:44:39.516Z,60.6
2018-09-16T11:45:29.939Z,60.6
2018-09-16T11:46:19.726Z,60.6
2018-09-16T11:47:09.803Z,60.6
2018-09-16T11:47:59.592Z,60.6
2018-09-16T11:48:50.430Z,60.6
2018-09-16T11:49:40.329Z,60.6
2018-09-16T11:50:29.182Z,60.6
2018-09-16T11:51:19.513Z,60.6
2018-09-16T11:52:09.657Z,60.6
2018-09-16T11:53:00.214Z,60.6
2018-09-16T11:53:50.540Z,60.6
2018-09-16T11:54:40.399Z,60.6
2018-09-16T11:55:30.413Z,60.6
2018-09-16T11:56:20.468Z,60.6
2018-09-16T11:57:10.259Z,60.6
2018-09-16T11:58:00.577Z,60.6
2018-09-16T11:58:50.715Z,60.6
2018-09-16T11:59:41.035Z,60.6
2018-09-16T12:00:30.791Z,60.6
2018-09-16T12:01:20.845Z,60.6
2018-09-16T12:02:11.542Z,60.6
2018-09-16T12:03:00.995Z,60.6
2018-09-16T12:03:51.081Z,60.6
2018-09-16T12:04:41.893Z,60.6
2018-09-16T12:05:31.194Z,60.5
2018-09-16T12:06:21.257Z,60.5
2018-09-16T12:07:11.275Z,60.6
2018-09-16T12:08:01.098Z,60.5
2018-09-16T12:08:50.967Z,60.5
2018-09-16T12:09:41.790Z,60.5
2018-09-16T12:10:31.539Z,60.5
2018-09-16T12:11:21.590Z,60.5
2018-09-16T12:12:12.020Z,60.5
2018-09-16T12:13:01.739Z,60.5
2018-09-16T12:13:51.786Z,60.5